Time;durP1;ratioP1;P1;durP2;ratioP2;P2;SDS_P1;SDS_P2;PMS_P1;PMS_P2;Temp;Humidity;BMP_temperature;BMP_pressure;BME280_temperature;BME280_humidity;BME280_pressure;Samples;Min_cycle;Max_cycle;Signal;HPM_P1;HPM_P2
2021/11/05 00:01:08;;;;;;;40.93;23.03;;;;;;;;;;5115442;28;20442;-83
2021/11/05 00:03:36;;;;;;;34.97;20.73;;;;;;;;;;5115216;28;20740;-81
2021/11/05 00:06:03;;;;;;;37.85;22.88;;;;;;;;;;5113222;28;20442;-84
2021/11/05 00:08:30;;;;;;;38.97;23.80;;;;;;;;;;5110893;28;20199;-80
2021/11/05 00:10:57;;;;;;;33.40;21.00;;;;;;;;;;5111510;28;20808;-81
2021/11/05 00:13:25;;;;;;;31.60;21.90;;;;;;;;;;5112742;28;20790;-83
2021/11/05 00:15:53;;;;;;;33.37;20.60;;;;;;;;;;5112769;28;20450;-80
2021/11/05 00:18:20;;;;;;;33.97;21.27;;;;;;;;;;5112950;28;21039;-83
2021/11/05 00:20:48;;;;;;;36.37;22.20;;;;;;;;;;5113379;28;20481;-80
2021/11/05 00:23:16;;;;;;;34.60;22.60;;;;;;;;;;5114701;28;20447;-80
2021/11/05 00:25:43;;;;;;;38.70;23.40;;;;;;;;;;5114839;28;20838;-84
2021/11/05 00:28:11;;;;;;;41.80;23.57;;;;;;;;;;5112681;28;20451;-84
2021/11/05 00:30:38;;;;;;;43.13;24.70;;;;;;;;;;5109829;28;20785;-79
2021/11/05 00:33:06;;;;;;;44.20;24.00;;;;;;;;;;5111257;28;20778;-84
2021/11/05 00:35:34;;;;;;;33.77;20.53;;;;;;;;;;5111949;28;20478;-84
2021/11/05 00:38:01;;;;;;;36.03;21.13;;;;;;;;;;5112235;28;20446;-85
2021/11/05 00:40:29;;;;;;;37.28;23.35;;;;;;;;;;5112387;28;20466;-83
2021/11/05 00:42:56;;;;;;;37.40;24.53;;;;;;;;;;5112978;28;20291;-82
2021/11/05 00:45:23;;;;;;;38.93;23.53;;;;;;;;;;5096238;28;20439;-79
2021/11/05 00:47:50;;;;;;;32.33;20.63;;;;;;;;;;5096090;28;20442;-83
2021/11/05 00:50:19;;;;;;;40.93;25.03;;;;;;;;;;5111950;28;20971;-79
2021/11/05 00:52:46;;;;;;;36.33;22.10;;;;;;;;;;5109365;28;20815;-80
2021/11/05 00:55:13;;;;;;;39.60;19.17;;;;;;;;;;5110889;28;20951;-83
2021/11/05 00:57:40;;;;;;;40.17;21.15;;;;;;;;;;5111712;28;20439;-83
2021/11/05 01:00:09;;;;;;;33.50;20.90;;;;;;;;;;5111805;28;20346;-83
2021/11/05 01:02:36;;;;;;;32.37;19.40;;;;;;;;;;5112041;28;20439;-83
2021/11/05 01:05:04;;;;;;;33.20;22.07;;;;;;;;;;5112354;28;20454;-82
2021/11/05 01:07:33;;;;;;;39.00;21.73;;;;;;;;;;5095877;28;20453;-84
2021/11/05 01:10:00;;;;;;;37.07;21.67;;;;;;;;;;5113848;28;20466;-82
2021/11/05 01:12:27;;;;;;;29.00;18.90;;;;;;;;;;5111352;28;20441;-81
2021/11/05 01:14:54;;;;;;;33.40;20.70;;;;;;;;;;5108997;28;20556;-79
2021/11/05 01:17:22;;;;;;;35.97;22.20;;;;;;;;;;5110667;28;20450;-84
2021/11/05 01:19:49;;;;;;;30.47;20.33;;;;;;;;;;5111191;28;20820;-82
2021/11/05 01:22:16;;;;;;;36.43;22.40;;;;;;;;;;5111727;28;20461;-79
2021/11/05 01:24:45;;;;;;;36.40;22.57;;;;;;;;;;5093754;28;20435;-85
2021/11/05 01:27:12;;;;;;;33.50;21.53;;;;;;;;;;5112364;28;20489;-84
2021/11/05 01:29:41;;;;;;;33.37;21.53;;;;;;;;;;5113343;28;20466;-82
2021/11/05 01:32:09;;;;;;;34.67;19.53;;;;;;;;;;5108676;28;20466;-86
2021/11/05 01:34:36;;;;;;;34.03;22.40;;;;;;;;;;5089858;28;20477;-81
2021/11/05 01:37:04;;;;;;;40.40;23.13;;;;;;;;;;5111089;28;20439;-84
2021/11/05 01:39:31;;;;;;;35.77;22.27;;;;;;;;;;5110814;28;20462;-81
2021/11/05 01:42:00;;;;;;;39.43;23.27;;;;;;;;;;5111375;28;20813;-82
2021/11/05 01:44:28;;;;;;;34.60;23.00;;;;;;;;;;5111236;28;20538;-83
2021/11/05 01:46:55;;;;;;;35.60;23.40;;;;;;;;;;5094945;28;20449;-86
2021/11/05 01:49:22;;;;;;;37.10;22.30;;;;;;;;;;5112981;28;21008;-84
2021/11/05 01:51:51;;;;;;;33.40;21.10;;;;;;;;;;5113034;28;20442;-86
2021/11/05 01:54:19;;;;;;;32.97;22.47;;;;;;;;;;5089414;28;20498;-80
2021/11/05 01:56:46;;;;;;;36.87;22.60;;;;;;;;;;5108917;28;20438;-79
2021/11/05 01:59:22;;;;;;;36.40;21.73;;;;;;;;;;5110734;28;20473;-81
2021/11/05 02:01:50;;;;;;;41.80;25.77;;;;;;;;;;5092977;28;20434;-83
2021/11/05 02:04:17;;;;;;;34.80;22.47;;;;;;;;;;5093033;28;20446;-81
2021/11/05 02:06:45;;;;;;;33.07;22.30;;;;;;;;;;5111164;28;20955;-84
2021/11/05 02:09:14;;;;;;;39.90;23.20;;;;;;;;;;5112875;28;20462;-83
2021/11/05 02:11:42;;;;;;;37.73;24.10;;;;;;;;;;5112811;28;20801;-83
2021/11/05 02:14:12;;;;;;;37.40;23.37;;;;;;;;;;5098080;28;20483;-84
2021/11/05 02:16:42;;;;;;;33.83;22.27;;;;;;;;;;5112706;28;20440;-83
2021/11/05 02:19:12;;;;;;;42.30;23.97;;;;;;;;;;5113138;28;20507;-83
2021/11/05 02:21:41;;;;;;;38.80;22.17;;;;;;;;;;5115037;28;20439;-82
2021/11/05 02:24:08;;;;;;;37.03;22.37;;;;;;;;;;5114922;28;20457;-81
2021/11/05 02:26:36;;;;;;;42.77;25.37;;;;;;;;;;5114819;28;20438;-80
2021/11/05 02:29:03;;;;;;;36.27;22.30;;;;;;;;;;5115382;28;20470;-79
2021/11/05 02:31:31;;;;;;;41.03;23.80;;;;;;;;;;5116684;28;20462;-85
2021/11/05 02:33:58;;;;;;;36.33;23.30;;;;;;;;;;5116710;28;20882;-83
2021/11/05 02:36:25;;;;;;;41.67;25.73;;;;;;;;;;5115766;28;20450;-83
2021/11/05 02:38:54;;;;;;;45.97;25.00;;;;;;;;;;5111748;28;20458;-84
2021/11/05 02:41:21;;;;;;;45.77;26.50;;;;;;;;;;5113083;28;20848;-80
2021/11/05 02:43:48;;;;;;;52.70;27.07;;;;;;;;;;5114555;28;20438;-78
2021/11/05 02:46:16;;;;;;;46.53;24.80;;;;;;;;;;5114523;28;20443;-83
2021/11/05 02:48:43;;;;;;;55.33;25.97;;;;;;;;;;5114614;28;20442;-82
2021/11/05 02:51:11;;;;;;;49.53;26.87;;;;;;;;;;5114786;28;20458;-84
2021/11/05 02:53:38;;;;;;;46.90;27.57;;;;;;;;;;5116215;28;20448;-81
2021/11/05 02:56:07;;;;;;;51.13;27.23;;;;;;;;;;5116322;28;20481;-81
2021/11/05 02:58:34;;;;;;;47.73;26.00;;;;;;;;;;5097207;28;20439;-83
2021/11/05 03:01:02;;;;;;;51.40;26.33;;;;;;;;;;5111756;28;20434;-83
2021/11/05 03:03:29;;;;;;;49.80;27.00;;;;;;;;;;5113008;28;20446;-81
2021/11/05 03:05:56;;;;;;;50.83;28.30;;;;;;;;;;5113656;28;20438;-82
2021/11/05 03:08:23;;;;;;;48.73;26.50;;;;;;;;;;5113963;28;20483;-82
2021/11/05 03:10:51;;;;;;;55.60;30.37;;;;;;;;;;5113949;28;20820;-82
2021/11/05 03:13:19;;;;;;;51.20;28.80;;;;;;;;;;5114514;28;20447;-81
2021/11/05 03:15:46;;;;;;;50.97;29.03;;;;;;;;;;5097833;28;20478;-81
2021/11/05 03:18:16;;;;;;;48.23;27.70;;;;;;;;;;5115827;28;20438;-81
2021/11/05 03:20:43;;;;;;;49.77;27.27;;;;;;;;;;5114816;28;20484;-82
2021/11/05 03:23:11;;;;;;;45.13;25.50;;;;;;;;;;5111144;28;20438;-82
2021/11/05 03:25:38;;;;;;;42.83;24.30;;;;;;;;;;5112192;28;20461;-80
2021/11/05 03:28:05;;;;;;;42.20;23.40;;;;;;;;;;5113547;28;20962;-84
2021/11/05 03:30:34;;;;;;;37.50;22.60;;;;;;;;;;5113232;28;20467;-84
2021/11/05 03:33:02;;;;;;;43.83;23.00;;;;;;;;;;5113525;28;20442;-81
2021/11/05 03:35:29;;;;;;;39.03;22.00;;;;;;;;;;5114245;28;20488;-83
2021/11/05 03:37:56;;;;;;;42.00;22.73;;;;;;;;;;5115501;28;20441;-82
2021/11/05 03:40:24;;;;;;;37.70;22.27;;;;;;;;;;5115375;28;20454;-82
2021/11/05 03:42:52;;;;;;;35.13;21.83;;;;;;;;;;5114195;28;20446;-83
2021/11/05 03:45:20;;;;;;;40.60;21.90;;;;;;;;;;5110518;28;20841;-83
2021/11/05 03:47:49;;;;;;;36.20;19.57;;;;;;;;;;5111524;28;20796;-82
2021/11/05 03:50:17;;;;;;;38.70;22.90;;;;;;;;;;5113263;28;20454;-81
2021/11/05 03:52:44;;;;;;;42.83;23.10;;;;;;;;;;5095443;28;20453;-81
2021/11/05 03:55:12;;;;;;;36.47;20.57;;;;;;;;;;5112951;28;20481;-82
2021/11/05 03:57:40;;;;;;;42.20;22.63;;;;;;;;;;5095991;28;20462;-81
2021/11/05 04:00:07;;;;;;;41.43;23.00;;;;;;;;;;5114808;28;20504;-81
2021/11/05 04:02:35;;;;;;;36.40;19.37;;;;;;;;;;5114957;28;20445;-83
2021/11/05 04:05:03;;;;;;;34.77;20.67;;;;;;;;;;5113871;28;20443;-86
2021/11/05 04:07:30;;;;;;;37.73;21.10;;;;;;;;;;5110276;28;20445;-82
2021/11/05 04:09:58;;;;;;;38.57;20.40;;;;;;;;;;5111426;28;20961;-85
2021/11/05 04:12:25;;;;;;;32.87;20.73;;;;;;;;;;5112631;28;20440;-82
2021/11/05 04:14:53;;;;;;;40.10;22.20;;;;;;;;;;5112458;28;20998;-86
2021/11/05 04:17:20;;;;;;;35.50;20.93;;;;;;;;;;5113010;28;20442;-81
2021/11/05 04:19:47;;;;;;;36.93;20.40;;;;;;;;;;5113294;28;20485;-80
2021/11/05 04:22:16;;;;;;;30.80;17.90;;;;;;;;;;5114714;28;20450;-84
2021/11/05 04:24:43;;;;;;;37.23;20.83;;;;;;;;;;5114508;28;20931;-82
2021/11/05 04:27:10;;;;;;;34.80;20.30;;;;;;;;;;5112889;28;20443;-84
2021/11/05 04:29:37;;;;;;;38.50;20.90;;;;;;;;;;5109639;28;21017;-82
2021/11/05 04:32:05;;;;;;;38.53;20.83;;;;;;;;;;5110732;28;20462;-85
2021/11/05 04:34:33;;;;;;;36.93;20.30;;;;;;;;;;5112295;28;20442;-82
2021/11/05 04:37:00;;;;;;;38.00;20.50;;;;;;;;;;5111920;28;20440;-80
2021/11/05 04:39:28;;;;;;;35.27;21.80;;;;;;;;;;5112160;28;20490;-82
2021/11/05 04:41:56;;;;;;;34.40;19.87;;;;;;;;;;5112702;28;20450;-83
2021/11/05 04:44:23;;;;;;;32.33;21.40;;;;;;;;;;5114255;28;20457;-84
2021/11/05 04:46:50;;;;;;;37.87;21.00;;;;;;;;;;5114009;28;20949;-82
2021/11/05 04:49:18;;;;;;;32.43;18.93;;;;;;;;;;5112318;28;20465;-82
2021/11/05 04:51:45;;;;;;;37.70;20.90;;;;;;;;;;5109871;28;20427;-84
2021/11/05 04:54:12;;;;;;;39.87;20.70;;;;;;;;;;5110329;28;20438;-86
2021/11/05 04:56:40;;;;;;;35.33;19.37;;;;;;;;;;5111847;28;20482;-86
2021/11/05 04:59:08;;;;;;;38.90;20.93;;;;;;;;;;5111949;28;20465;-84
2021/11/05 05:01:35;;;;;;;33.00;20.37;;;;;;;;;;5111989;28;20442;-82
2021/11/05 05:04:03;;;;;;;27.57;18.70;;;;;;;;;;5112582;28;20469;-83
2021/11/05 05:06:30;;;;;;;32.87;19.63;;;;;;;;;;5113663;28;20430;-82
2021/11/05 05:08:57;;;;;;;41.97;20.80;;;;;;;;;;5113610;28;20821;-84
2021/11/05 05:11:24;;;;;;;33.93;19.23;;;;;;;;;;5111990;28;20450;-84
2021/11/05 05:13:53;;;;;;;35.60;19.70;;;;;;;;;;5109087;28;20439;-83
2021/11/05 05:16:20;;;;;;;42.23;21.90;;;;;;;;;;5110496;28;20947;-84
2021/11/05 05:18:47;;;;;;;36.27;20.10;;;;;;;;;;5111664;28;20526;-82
2021/11/05 05:21:15;;;;;;;42.17;21.40;;;;;;;;;;5111388;28;20431;-83
2021/11/05 05:23:43;;;;;;;33.67;19.30;;;;;;;;;;5093375;28;21091;-88
2021/11/05 05:26:10;;;;;;;32.63;19.03;;;;;;;;;;5094348;28;20801;-83
2021/11/05 05:28:37;;;;;;;42.57;19.67;;;;;;;;;;5113359;28;20793;-82
2021/11/05 05:31:07;;;;;;;36.60;20.70;;;;;;;;;;5113190;28;20474;-82
2021/11/05 05:33:36;;;;;;;38.80;19.47;;;;;;;;;;5111123;28;20919;-81
2021/11/05 05:36:04;;;;;;;40.57;21.53;;;;;;;;;;5108407;28;20466;-82
2021/11/05 05:38:31;;;;;;;32.27;19.30;;;;;;;;;;5092153;28;20485;-82
2021/11/05 05:40:59;;;;;;;39.23;21.20;;;;;;;;;;5095294;28;20445;-81
2021/11/05 05:43:26;;;;;;;35.20;20.27;;;;;;;;;;5112005;28;20466;-82
2021/11/05 05:45:54;;;;;;;34.67;19.43;;;;;;;;;;5116042;28;20521;-83
2021/11/05 05:48:23;;;;;;;33.27;19.10;;;;;;;;;;5103320;28;20458;-82
2021/11/05 05:50:51;;;;;;;32.90;19.90;;;;;;;;;;5119162;28;20557;-83
2021/11/05 05:53:18;;;;;;;31.50;19.50;;;;;;;;;;5113996;28;20442;-82
2021/11/05 05:55:45;;;;;;;30.77;17.93;;;;;;;;;;5110799;28;20892;-85
2021/11/05 05:58:13;;;;;;;30.20;17.70;;;;;;;;;;5108689;28;20506;-82
2021/11/05 06:00:40;;;;;;;35.63;18.90;;;;;;;;;;5110075;28;20462;-85
2021/11/05 06:03:07;;;;;;;31.93;19.97;;;;;;;;;;5110598;28;20850;-84
2021/11/05 06:05:36;;;;;;;29.40;18.03;;;;;;;;;;5110929;28;20939;-87
2021/11/05 06:08:03;;;;;;;35.23;19.77;;;;;;;;;;5111152;28;20464;-83
2021/11/05 06:10:31;;;;;;;34.17;21.27;;;;;;;;;;5111884;28;20466;-83
2021/11/05 06:12:58;;;;;;;34.03;21.50;;;;;;;;;;5113034;28;20446;-87
2021/11/05 06:15:26;;;;;;;32.27;21.70;;;;;;;;;;5112720;28;20946;-83
2021/11/05 06:17:53;;;;;;;32.90;20.23;;;;;;;;;;5110714;28;20442;-83
2021/11/05 06:20:20;;;;;;;32.00;20.80;;;;;;;;;;5108196;28;20454;-85
2021/11/05 06:22:49;;;;;;;31.93;20.20;;;;;;;;;;5109905;28;20969;-85
2021/11/05 06:25:16;;;;;;;34.73;19.83;;;;;;;;;;5092436;28;20807;-82
2021/11/05 06:27:43;;;;;;;30.47;19.50;;;;;;;;;;5110684;28;20454;-86
2021/11/05 06:30:12;;;;;;;25.50;17.70;;;;;;;;;;5110838;28;20549;-83
2021/11/05 06:32:40;;;;;;;29.73;18.33;;;;;;;;;;5093999;28;20919;-84
2021/11/05 06:35:08;;;;;;;29.17;18.60;;;;;;;;;;5112932;28;20447;-83
2021/11/05 06:37:37;;;;;;;29.20;19.17;;;;;;;;;;5113135;28;20963;-83
2021/11/05 06:40:06;;;;;;;25.83;17.20;;;;;;;;;;5110000;28;20454;-83
2021/11/05 06:42:33;;;;;;;31.73;20.97;;;;;;;;;;5108025;28;20717;-81
2021/11/05 06:45:01;;;;;;;29.27;18.83;;;;;;;;;;5110003;28;20448;-82
2021/11/05 06:47:28;;;;;;;30.83;21.63;;;;;;;;;;5110545;28;20442;-81
2021/11/05 06:49:55;;;;;;;33.27;21.27;;;;;;;;;;5111193;28;20469;-83
2021/11/05 06:52:22;;;;;;;31.57;20.90;;;;;;;;;;5111339;28;20446;-83
2021/11/05 06:54:50;;;;;;;34.60;21.40;;;;;;;;;;5111536;28;20461;-82
2021/11/05 06:57:18;;;;;;;35.13;22.30;;;;;;;;;;5112221;28;20478;-83
2021/11/05 06:59:46;;;;;;;38.30;24.87;;;;;;;;;;5115540;28;20458;-83
2021/11/05 07:02:13;;;;;;;31.20;21.80;;;;;;;;;;5110080;28;20654;-82
2021/11/05 07:04:40;;;;;;;31.67;21.47;;;;;;;;;;5107241;28;20777;-85
2021/11/05 07:07:07;;;;;;;32.00;22.57;;;;;;;;;;5113508;28;20735;-82
2021/11/05 07:09:35;;;;;;;36.83;23.17;;;;;;;;;;5104452;28;21692;-81
2021/11/05 07:12:21;;;;;;;33.40;22.13;;;;;;;;;;5082153;28;20533;-84
2021/11/05 07:14:50;;;;;;;37.30;23.20;;;;;;;;;;5112868;28;20427;-78
2021/11/05 07:17:17;;;;;;;33.13;21.77;;;;;;;;;;5112511;28;20489;-81
2021/11/05 07:19:44;;;;;;;34.20;22.20;;;;;;;;;;5110916;28;20795;-80
2021/11/05 07:22:11;;;;;;;30.30;20.80;;;;;;;;;;5112148;28;20456;-82
2021/11/05 07:24:39;;;;;;;31.70;21.00;;;;;;;;;;5113601;28;20441;-81
2021/11/05 07:27:06;;;;;;;32.80;21.63;;;;;;;;;;5113232;28;20485;-80
2021/11/05 07:29:34;;;;;;;25.47;18.50;;;;;;;;;;5113357;28;20818;-81
2021/11/05 07:32:07;;;;;;;26.73;20.10;;;;;;;;;;5113999;28;20482;-82
2021/11/05 07:34:34;;;;;;;28.10;21.37;;;;;;;;;;5114883;28;20451;-80
2021/11/05 07:37:02;;;;;;;30.13;20.67;;;;;;;;;;5115554;28;20470;-80
2021/11/05 07:39:30;;;;;;;32.23;20.97;;;;;;;;;;5098975;28;20458;-78
2021/11/05 07:41:57;;;;;;;29.40;20.60;;;;;;;;;;5089737;28;20442;-79
2021/11/05 07:44:25;;;;;;;29.33;21.37;;;;;;;;;;5111811;28;20453;-81
2021/11/05 07:46:52;;;;;;;28.20;19.60;;;;;;;;;;5112799;28;20708;-79
2021/11/05 07:49:21;;;;;;;28.70;19.90;;;;;;;;;;5113121;28;20467;-78
2021/11/05 07:51:49;;;;;;;28.30;19.47;;;;;;;;;;5113307;28;20447;-85
2021/11/05 07:54:16;;;;;;;27.03;19.70;;;;;;;;;;5114708;28;20442;-82
2021/11/05 07:56:43;;;;;;;30.70;21.13;;;;;;;;;;5114988;28;20474;-79
2021/11/05 07:59:10;;;;;;;36.50;23.20;;;;;;;;;;5114534;28;21056;-85
2021/11/05 08:01:37;;;;;;;29.20;19.17;;;;;;;;;;5112251;28;20454;-80
2021/11/05 08:04:05;;;;;;;30.17;20.03;;;;;;;;;;5110554;28;20787;-80
2021/11/05 08:06:33;;;;;;;31.97;21.73;;;;;;;;;;5112372;28;20533;-80
2021/11/05 08:09:01;;;;;;;28.60;19.63;;;;;;;;;;5112769;28;20466;-78
2021/11/05 08:11:29;;;;;;;32.83;20.23;;;;;;;;;;5112032;28;20442;-81
2021/11/05 08:13:57;;;;;;;29.10;19.63;;;;;;;;;;5113372;28;20483;-82
2021/11/05 08:16:24;;;;;;;35.63;19.67;;;;;;;;;;5113703;28;20474;-79
2021/11/05 08:18:52;;;;;;;29.53;19.60;;;;;;;;;;5114529;28;20488;-82
2021/11/05 08:21:19;;;;;;;28.60;20.10;;;;;;;;;;5113284;28;20442;-82
2021/11/05 08:23:48;;;;;;;29.53;19.37;;;;;;;;;;5109691;28;20442;-84
2021/11/05 08:26:15;;;;;;;32.50;19.60;;;;;;;;;;5110742;28;20430;-84
2021/11/05 08:28:43;;;;;;;31.23;20.30;;;;;;;;;;5112252;28;20448;-81
2021/11/05 08:31:11;;;;;;;33.80;21.93;;;;;;;;;;5111981;28;20553;-82
2021/11/05 08:33:39;;;;;;;35.70;23.00;;;;;;;;;;5105053;28;20452;-81
2021/11/05 08:36:07;;;;;;;27.40;18.90;;;;;;;;;;5112395;28;20459;-78
2021/11/05 08:38:35;;;;;;;32.07;20.40;;;;;;;;;;5114315;28;20445;-83
2021/11/05 08:41:03;;;;;;;33.80;21.40;;;;;;;;;;5114316;28;20453;-80
2021/11/05 08:43:33;;;;;;;30.70;21.93;;;;;;;;;;5095686;28;20438;-80
2021/11/05 08:46:00;;;;;;;29.97;22.20;;;;;;;;;;5109323;28;20430;-80
2021/11/05 08:48:28;;;;;;;36.30;22.53;;;;;;;;;;5108747;28;20449;-82
2021/11/05 08:50:56;;;;;;;35.80;22.27;;;;;;;;;;5109774;28;20967;-80
2021/11/05 08:53:24;;;;;;;30.80;20.20;;;;;;;;;;5095848;28;20447;-81
2021/11/05 08:55:51;;;;;;;32.53;19.47;;;;;;;;;;5073592;28;20982;-83
2021/11/05 08:58:20;;;;;;;33.80;18.80;;;;;;;;;;5107376;28;21007;-83
2021/11/05 09:00:47;;;;;;;25.23;17.13;;;;;;;;;;5110313;28;20454;-82
2021/11/05 09:03:14;;;;;;;24.93;17.47;;;;;;;;;;5107641;27;20443;-83
2021/11/05 09:05:42;;;;;;;27.13;18.67;;;;;;;;;;5110169;28;20529;-82
2021/11/05 09:08:09;;;;;;;30.67;19.20;;;;;;;;;;5110047;28;20833;-81
2021/11/05 09:10:37;;;;;;;27.33;19.53;;;;;;;;;;5110750;28;20454;-81
2021/11/05 09:13:05;;;;;;;30.50;18.30;;;;;;;;;;5093669;28;20434;-81
2021/11/05 09:15:33;;;;;;;29.93;20.47;;;;;;;;;;5112976;28;20860;-79
2021/11/05 09:18:02;;;;;;;27.90;18.67;;;;;;;;;;5113180;28;21230;-81
2021/11/05 09:20:30;;;;;;;26.53;17.97;;;;;;;;;;5090493;28;20467;-79
2021/11/05 09:22:58;;;;;;;27.93;18.13;;;;;;;;;;5103541;28;20996;-79
2021/11/05 09:25:25;;;;;;;27.77;18.33;;;;;;;;;;5107701;28;20450;-83
2021/11/05 09:27:52;;;;;;;24.57;17.10;;;;;;;;;;5109967;28;20448;-79
2021/11/05 09:30:23;;;;;;;31.87;18.60;;;;;;;;;;5110821;28;20466;-85
2021/11/05 09:32:52;;;;;;;22.27;17.50;;;;;;;;;;5111070;28;20472;-82
2021/11/05 09:35:20;;;;;;;30.43;19.97;;;;;;;;;;5093593;28;20445;-83
2021/11/05 09:37:49;;;;;;;31.67;19.93;;;;;;;;;;5112180;28;20474;-84
2021/11/05 09:40:18;;;;;;;27.83;19.00;;;;;;;;;;5112964;28;20462;-81
2021/11/05 09:42:46;;;;;;;23.27;17.60;;;;;;;;;;5112849;28;20865;-83
2021/11/05 09:45:13;;;;;;;24.43;17.50;;;;;;;;;;5110897;28;20984;-82
2021/11/05 09:47:41;;;;;;;24.20;18.07;;;;;;;;;;5089220;28;20525;-83
2021/11/05 09:50:10;;;;;;;23.10;16.70;;;;;;;;;;5091427;28;20453;-80
2021/11/05 09:52:38;;;;;;;24.83;18.33;;;;;;;;;;5110861;28;20442;-82
2021/11/05 09:55:06;;;;;;;26.50;20.10;;;;;;;;;;5110785;28;20442;-84
2021/11/05 09:57:34;;;;;;;28.27;17.40;;;;;;;;;;5110472;28;20870;-81
2021/11/05 10:00:01;;;;;;;24.77;17.93;;;;;;;;;;5111733;28;20505;-80
2021/11/05 10:02:28;;;;;;;22.63;18.20;;;;;;;;;;5112866;28;20439;-81
2021/11/05 10:04:58;;;;;;;26.53;18.70;;;;;;;;;;5112787;28;20450;-86
2021/11/05 10:07:27;;;;;;;22.77;17.13;;;;;;;;;;5110988;28;20509;-85
2021/11/05 10:09:55;;;;;;;23.23;17.43;;;;;;;;;;5107813;28;20815;-80
2021/11/05 10:12:23;;;;;;;23.70;16.30;;;;;;;;;;5091228;28;20435;-86
2021/11/05 10:14:55;;;;;;;20.50;14.13;;;;;;;;;;5111065;28;20809;-83
2021/11/05 10:17:22;;;;;;;21.43;14.47;;;;;;;;;;5110915;28;20484;-84
2021/11/05 10:19:51;;;;;;;22.40;15.80;;;;;;;;;;5111087;28;20549;-81
2021/11/05 10:22:32;;;;;;;16.90;12.50;;;;;;;;;;5091858;28;20446;-81
2021/11/05 10:25:14;;;;;;;21.40;12.67;;;;;;;;;;5091618;28;20446;-83
2021/11/05 10:27:43;;;;;;;24.83;14.33;;;;;;;;;;5093501;28;20953;-82
2021/11/05 10:30:10;;;;;;;21.60;13.10;;;;;;;;;;5091643;28;20974;-80
2021/11/05 10:32:40;;;;;;;18.03;12.63;;;;;;;;;;5110342;28;21000;-82
2021/11/05 10:35:12;;;;;;;15.33;11.67;;;;;;;;;;5114445;28;20499;-79
2021/11/05 10:37:41;;;;;;;24.17;14.67;;;;;;;;;;5095113;28;20810;-86
2021/11/05 10:40:10;;;;;;;16.40;13.20;;;;;;;;;;5111945;28;20554;-81
2021/11/05 10:42:38;;;;;;;23.57;14.20;;;;;;;;;;5094960;28;20442;-79
2021/11/05 10:45:14;;;;;;;35.60;16.40;;;;;;;;;;5096104;28;20808;-82
2021/11/05 10:47:58;;;;;;;28.17;17.47;;;;;;;;;;5114502;28;20438;-80
2021/11/05 10:50:25;;;;;;;23.40;14.00;;;;;;;;;;5113606;28;20465;-84
2021/11/05 10:52:58;;;;;;;19.23;13.20;;;;;;;;;;5115746;28;20946;-78
2021/11/05 10:55:26;;;;;;;17.90;12.33;;;;;;;;;;5115915;28;20443;-78
2021/11/05 10:57:55;;;;;;;16.57;11.73;;;;;;;;;;5115645;28;20986;-80
2021/11/05 11:00:24;;;;;;;15.93;11.57;;;;;;;;;;5114008;28;20458;-81
2021/11/05 11:02:52;;;;;;;16.90;12.13;;;;;;;;;;5111530;28;20703;-81
2021/11/05 11:05:34;;;;;;;15.50;11.73;;;;;;;;;;5113513;28;20540;-78
2021/11/05 11:08:01;;;;;;;22.80;13.33;;;;;;;;;;5097984;28;20517;-81
2021/11/05 11:10:32;;;;;;;24.83;14.90;;;;;;;;;;5114210;28;20469;-81
2021/11/05 11:12:59;;;;;;;19.20;13.93;;;;;;;;;;5114324;28;20445;-82
2021/11/05 11:15:33;;;;;;;17.20;11.67;;;;;;;;;;5115168;28;20533;-83
2021/11/05 11:18:00;;;;;;;17.40;12.80;;;;;;;;;;5115962;28;20833;-78
2021/11/05 11:20:31;;;;;;;16.40;11.97;;;;;;;;;;5115215;28;20465;-78
2021/11/05 11:22:58;;;;;;;16.27;11.33;;;;;;;;;;5094003;28;20992;-79
2021/11/05 11:25:25;;;;;;;15.13;11.30;;;;;;;;;;5111466;28;20438;-78
2021/11/05 11:27:53;;;;;;;18.80;12.23;;;;;;;;;;5112909;28;20801;-79
2021/11/05 11:30:20;;;;;;;18.30;12.60;;;;;;;;;;5114133;28;20996;-80
2021/11/05 11:32:50;;;;;;;13.90;10.60;;;;;;;;;;5115791;28;20805;-79
2021/11/05 11:35:18;;;;;;;16.83;11.23;;;;;;;;;;5116213;28;20448;-81
2021/11/05 11:37:46;;;;;;;16.77;10.70;;;;;;;;;;5101883;28;20482;-79
2021/11/05 11:40:14;;;;;;;12.47;8.90;;;;;;;;;;5119791;28;20462;-79
2021/11/05 11:42:42;;;;;;;17.37;10.83;;;;;;;;;;5096049;28;20449;-84
2021/11/05 11:45:09;;;;;;;13.47;11.10;;;;;;;;;;5109943;28;20442;-82
2021/11/05 11:47:42;;;;;;;12.90;9.70;;;;;;;;;;5111720;28;20515;-82
2021/11/05 11:50:22;;;;;;;11.20;8.93;;;;;;;;;;5113239;28;20458;-83
2021/11/05 11:52:58;;;;;;;10.60;9.20;;;;;;;;;;5112571;28;20525;-82
2021/11/05 11:55:25;;;;;;;14.30;9.20;;;;;;;;;;5112757;28;20442;-82
2021/11/05 11:58:07;;;;;;;11.37;9.17;;;;;;;;;;5112836;28;20555;-81
2021/11/05 12:00:35;;;;;;;12.47;9.10;;;;;;;;;;5093820;28;20451;-79
2021/11/05 12:03:03;;;;;;;14.60;9.37;;;;;;;;;;5111310;28;20441;-82
2021/11/05 12:05:45;;;;;;;12.53;9.20;;;;;;;;;;5112882;28;20440;-80
2021/11/05 12:08:17;;;;;;;9.07;8.13;;;;;;;;;;5097097;28;20438;-79
2021/11/05 12:10:45;;;;;;;13.07;8.80;;;;;;;;;;5112737;28;20548;-81
2021/11/05 12:13:27;;;;;;;13.83;8.97;;;;;;;;;;5095544;28;20908;-79
2021/11/05 12:16:09;;;;;;;9.70;7.90;;;;;;;;;;5113927;28;20438;-81
2021/11/05 12:19:00;;;;;;;9.87;7.53;;;;;;;;;;5098564;28;21091;-80
2021/11/05 12:21:29;;;;;;;10.90;8.30;;;;;;;;;;5096031;28;20455;-79
2021/11/05 12:24:11;;;;;;;13.53;8.00;;;;;;;;;;5109881;28;20462;-80
2021/11/05 12:26:43;;;;;;;9.30;7.03;;;;;;;;;;5096175;28;20529;-78
2021/11/05 12:29:10;;;;;;;8.20;7.40;;;;;;;;;;5094267;28;20450;-80
2021/11/05 12:31:44;;;;;;;8.13;7.40;;;;;;;;;;5112114;28;20474;-81
2021/11/05 12:34:25;;;;;;;10.20;7.07;;;;;;;;;;5112512;28;20446;-80
2021/11/05 12:36:53;;;;;;;8.47;6.30;;;;;;;;;;5114053;28;20466;-82
2021/11/05 12:39:29;;;;;;;9.33;6.80;;;;;;;;;;5095440;28;20478;-83
2021/11/05 12:42:01;;;;;;;7.87;6.63;;;;;;;;;;5113082;28;20442;-83
2021/11/05 12:44:29;;;;;;;8.50;6.73;;;;;;;;;;5109488;28;20455;-87
2021/11/05 12:46:57;;;;;;;7.37;6.20;;;;;;;;;;5110324;28;20443;-80
2021/11/05 12:49:27;;;;;;;8.97;6.50;;;;;;;;;;5111783;28;20963;-81
2021/11/05 12:51:54;;;;;;;10.83;5.80;;;;;;;;;;5111819;28;20443;-78
2021/11/05 12:54:22;;;;;;;9.03;5.87;;;;;;;;;;5111741;28;20447;-81
2021/11/05 12:56:52;;;;;;;9.30;6.83;;;;;;;;;;5110641;28;20860;-83
2021/11/05 12:59:23;;;;;;;8.83;5.90;;;;;;;;;;5123045;27;20881;-82
2021/11/05 13:01:53;;;;;;;9.53;6.30;;;;;;;;;;5108299;28;20841;-82
2021/11/05 13:04:20;;;;;;;11.13;5.63;;;;;;;;;;5111149;28;20875;-79
2021/11/05 13:06:52;;;;;;;8.10;5.13;;;;;;;;;;5112070;28;20444;-78
2021/11/05 13:09:21;;;;;;;9.30;5.77;;;;;;;;;;5094223;28;20454;-81
2021/11/05 13:11:56;;;;;;;9.10;5.40;;;;;;;;;;5094005;28;20463;-80
2021/11/05 13:14:39;;;;;;;10.07;5.03;;;;;;;;;;5114124;28;20484;-82
2021/11/05 13:17:12;;;;;;;5.90;5.20;;;;;;;;;;5127481;27;20442;-81
2021/11/05 13:19:44;;;;;;;7.00;4.20;;;;;;;;;;5112850;28;20569;-81
2021/11/05 13:22:11;;;;;;;6.10;4.53;;;;;;;;;;5108802;28;20438;-81
2021/11/05 13:24:39;;;;;;;8.13;5.40;;;;;;;;;;5109593;28;20534;-80
2021/11/05 13:27:06;;;;;;;9.10;5.23;;;;;;;;;;5111443;28;20993;-80
2021/11/05 13:29:34;;;;;;;5.87;4.60;;;;;;;;;;5111155;28;20462;-81
2021/11/05 13:32:16;;;;;;;6.00;4.30;;;;;;;;;;5111110;28;20466;-78
2021/11/05 13:34:44;;;;;;;7.03;4.20;;;;;;;;;;5096397;28;20446;-81
2021/11/05 13:37:13;;;;;;;8.57;4.00;;;;;;;;;;5129112;27;20462;-80
2021/11/05 13:39:41;;;;;;;5.00;3.93;;;;;;;;;;5128848;27;20489;-79
2021/11/05 13:42:17;;;;;;;5.30;3.90;;;;;;;;;;5112044;28;20814;-80
2021/11/05 13:44:45;;;;;;;5.10;3.63;;;;;;;;;;5108638;28;20784;-81
2021/11/05 13:47:14;;;;;;;5.43;3.70;;;;;;;;;;5109874;28;20461;-80
2021/11/05 13:49:42;;;;;;;4.10;3.27;;;;;;;;;;5111100;28;20469;-79
2021/11/05 13:52:12;;;;;;;6.60;3.37;;;;;;;;;;5110930;28;20503;-80
2021/11/05 13:54:43;;;;;;;6.33;3.33;;;;;;;;;;5091199;28;20507;-81
2021/11/05 13:57:15;;;;;;;8.13;3.10;;;;;;;;;;5084791;28;20547;-81
2021/11/05 13:59:43;;;;;;;5.33;3.33;;;;;;;;;;5096003;28;20479;-82
2021/11/05 14:02:11;;;;;;;9.23;3.60;;;;;;;;;;5112486;28;20802;-79
2021/11/05 14:04:38;;;;;;;7.53;3.40;;;;;;;;;;5092396;28;20456;-78
2021/11/05 14:07:12;;;;;;;3.63;2.60;;;;;;;;;;5106020;28;20439;-76
2021/11/05 14:09:45;;;;;;;7.70;3.13;;;;;;;;;;5109120;28;20473;-76
2021/11/05 14:12:14;;;;;;;4.40;2.90;;;;;;;;;;5110032;28;20534;-77
2021/11/05 14:14:47;;;;;;;5.50;2.77;;;;;;;;;;5111195;28;20458;-78
2021/11/05 14:17:18;;;;;;;3.80;2.83;;;;;;;;;;5111255;28;20456;-79
2021/11/05 14:19:54;;;;;;;7.03;3.10;;;;;;;;;;5111842;28;20513;-81
2021/11/05 14:22:39;;;;;;;8.57;3.20;;;;;;;;;;5129140;28;20536;-81
2021/11/05 14:25:15;;;;;;;7.00;3.87;;;;;;;;;;5113039;28;20499;-77
2021/11/05 14:27:42;;;;;;;8.07;4.47;;;;;;;;;;5109555;28;20529;-80
2021/11/05 14:30:16;;;;;;;5.70;3.30;;;;;;;;;;5108323;28;20912;-76